sensor_id;sensor_type;location;lat;lon;timestamp;pressure;altitude;pressure_sealevel;temperature;humidity
71917;BME280;59793;46.506;6.674;2023-03-25T00:01:33;97204.53;;;9.72;77.14
71917;BME280;59793;46.506;6.674;2023-03-25T00:03:59;97198.84;;;9.70;77.31
71917;BME280;59793;46.506;6.674;2023-03-25T00:06:26;97216.16;;;9.58;78.78
71917;BME280;59793;46.506;6.674;2023-03-25T00:08:53;97216.38;;;9.53;76.92
71917;BME280;59793;46.506;6.674;2023-03-25T00:11:18;97210.47;;;9.44;78.57
71917;BME280;59793;46.506;6.674;2023-03-25T00:13:43;97217.69;;;9.47;79.23
71917;BME280;59793;46.506;6.674;2023-03-25T00:16:09;97162.69;;;9.18;79.12
71917;BME280;59793;46.506;6.674;2023-03-25T00:18:34;97210.34;;;9.53;79.85
71917;BME280;59793;46.506;6.674;2023-03-25T00:21:02;97206.41;;;9.59;80.22
71917;BME280;59793;46.506;6.674;2023-03-25T00:23:29;97211.09;;;9.53;80.31
71917;BME280;59793;46.506;6.674;2023-03-25T00:25:55;97208.28;;;9.58;80.08
71917;BME280;59793;46.506;6.674;2023-03-25T00:28:25;97181.84;;;9.43;79.84
71917;BME280;59793;46.506;6.674;2023-03-25T00:30:53;97194.78;;;9.48;80.41
71917;BME280;59793;46.506;6.674;2023-03-25T00:33:18;97186.13;;;9.60;79.61
71917;BME280;59793;46.506;6.674;2023-03-25T00:35:50;97183.94;;;9.49;79.49
71917;BME280;59793;46.506;6.674;2023-03-25T00:38:18;97175.63;;;9.35;80.70
71917;BME280;59793;46.506;6.674;2023-03-25T00:40:44;97190.75;;;9.26;79.82
71917;BME280;59793;46.506;6.674;2023-03-25T00:43:11;97195.00;;;9.30;79.88
71917;BME280;59793;46.506;6.674;2023-03-25T00:45:36;97178.03;;;9.40;79.96
71917;BME280;59793;46.506;6.674;2023-03-25T00:48:02;97188.97;;;9.42;80.42
71917;BME280;59793;46.506;6.674;2023-03-25T00:50:27;97187.22;;;9.71;73.59
71917;BME280;59793;46.506;6.674;2023-03-25T00:52:53;97163.78;;;9.66;72.01
71917;BME280;59793;46.506;6.674;2023-03-25T00:55:18;97168.34;;;9.81;74.20
71917;BME280;59793;46.506;6.674;2023-03-25T00:57:44;97172.19;;;9.84;73.19
71917;BME280;59793;46.506;6.674;2023-03-25T01:00:13;97162.81;;;9.98;73.74
71917;BME280;59793;46.506;6.674;2023-03-25T01:02:39;97131.69;;;9.88;73.36
71917;BME280;59793;46.506;6.674;2023-03-25T01:05:05;97135.84;;;9.89;74.01
71917;BME280;59793;46.506;6.674;2023-03-25T01:07:30;97140.50;;;9.80;73.22
71917;BME280;59793;46.506;6.674;2023-03-25T01:09:57;97122.09;;;9.68;72.86
71917;BME280;59793;46.506;6.674;2023-03-25T01:12:23;97139.47;;;9.97;73.48
71917;BME280;59793;46.506;6.674;2023-03-25T01:14:49;97116.91;;;9.84;72.78
71917;BME280;59793;46.506;6.674;2023-03-25T01:17:14;97099.94;;;9.81;71.47
71917;BME280;59793;46.506;6.674;2023-03-25T01:19:40;97121.38;;;9.95;70.91
71917;BME280;59793;46.506;6.674;2023-03-25T01:22:05;97144.28;;;10.07;71.17
71917;BME280;59793;46.506;6.674;2023-03-25T01:24:31;97129.25;;;9.95;71.35
71917;BME280;59793;46.506;6.674;2023-03-25T01:26:56;97146.56;;;10.09;72.58
71917;BME280;59793;46.506;6.674;2023-03-25T01:29:22;97151.91;;;10.12;72.16
71917;BME280;59793;46.506;6.674;2023-03-25T01:31:49;97156.44;;;9.99;73.21
71917;BME280;59793;46.506;6.674;2023-03-25T01:34:16;97172.03;;;9.92;72.79
71917;BME280;59793;46.506;6.674;2023-03-25T01:36:41;97152.69;;;9.60;70.89
71917;BME280;59793;46.506;6.674;2023-03-25T01:39:11;97169.25;;;9.48;71.01
71917;BME280;59793;46.506;6.674;2023-03-25T01:41:37;97187.66;;;9.48;72.08
71917;BME280;59793;46.506;6.674;2023-03-25T01:44:04;97166.19;;;9.46;72.45
71917;BME280;59793;46.506;6.674;2023-03-25T01:46:30;97162.25;;;9.52;72.35
71917;BME280;59793;46.506;6.674;2023-03-25T01:48:56;97144.06;;;9.47;72.89
71917;BME280;59793;46.506;6.674;2023-03-25T01:51:26;97160.38;;;9.65;72.93
71917;BME280;59793;46.506;6.674;2023-03-25T01:53:53;97127.19;;;9.36;74.70
71917;BME280;59793;46.506;6.674;2023-03-25T01:56:22;97130.91;;;9.35;75.52
71917;BME280;59793;46.506;6.674;2023-03-25T01:58:50;97082.09;;;9.09;74.88
71917;BME280;59793;46.506;6.674;2023-03-25T02:01:18;97141.66;;;9.54;76.13
71917;BME280;59793;46.506;6.674;2023-03-25T02:03:48;97137.38;;;9.50;75.50
71917;BME280;59793;46.506;6.674;2023-03-25T02:06:21;97119.50;;;9.55;75.41
71917;BME280;59793;46.506;6.674;2023-03-25T02:08:52;97117.31;;;9.45;75.32
71917;BME280;59793;46.506;6.674;2023-03-25T02:11:19;97129.81;;;9.48;74.22
71917;BME280;59793;46.506;6.674;2023-03-25T02:13:44;97110.97;;;9.46;74.99
71917;BME280;59793;46.506;6.674;2023-03-25T02:16:22;97088.41;;;9.45;74.56
71917;BME280;59793;46.506;6.674;2023-03-25T02:19:16;97126.06;;;9.62;74.28
71917;BME280;59793;46.506;6.674;2023-03-25T02:27:40;97119.59;;;9.59;73.95
71917;BME280;59793;46.506;6.674;2023-03-25T02:38:25;97130.22;;;9.63;73.60
71917;BME280;59793;46.506;6.674;2023-03-25T02:41:00;97143.28;;;9.47;73.97
71917;BME280;59793;46.506;6.674;2023-03-25T02:43:31;97146.59;;;9.31;74.45
71917;BME280;59793;46.506;6.674;2023-03-25T02:46:03;97160.63;;;9.23;75.39
71917;BME280;59793;46.506;6.674;2023-03-25T02:51:22;97142.31;;;9.27;75.18
71917;BME280;59793;46.506;6.674;2023-03-25T02:53:50;97121.94;;;9.12;73.47
71917;BME280;59793;46.506;6.674;2023-03-25T02:56:18;97140.13;;;9.29;74.12
71917;BME280;59793;46.506;6.674;2023-03-25T02:58:49;97138.16;;;9.26;75.47
71917;BME280;59793;46.506;6.674;2023-03-25T03:01:16;97144.94;;;9.27;74.50
71917;BME280;59793;46.506;6.674;2023-03-25T03:03:41;97096.44;;;9.12;72.85
71917;BME280;59793;46.506;6.674;2023-03-25T03:06:07;97129.16;;;9.39;72.90
71917;BME280;59793;46.506;6.674;2023-03-25T03:11:27;97125.44;;;9.40;73.70
71917;BME280;59793;46.506;6.674;2023-03-25T03:24:35;97132.00;;;9.46;72.46
71917;BME280;59793;46.506;6.674;2023-03-25T03:27:15;97129.47;;;9.50;72.42
71917;BME280;59793;46.506;6.674;2023-03-25T03:29:52;97087.78;;;9.24;72.56
71917;BME280;59793;46.506;6.674;2023-03-25T03:32:25;97135.72;;;9.45;73.20
71917;BME280;59793;46.506;6.674;2023-03-25T03:35:01;97132.44;;;9.36;73.69
71917;BME280;59793;46.506;6.674;2023-03-25T03:37:34;97104.84;;;9.18;73.78
71917;BME280;59793;46.506;6.674;2023-03-25T03:40:02;97134.53;;;9.43;73.86
71917;BME280;59793;46.506;6.674;2023-03-25T03:42:33;97152.59;;;9.56;74.01
71917;BME280;59793;46.506;6.674;2023-03-25T03:45:04;97149.00;;;9.61;72.69
71917;BME280;59793;46.506;6.674;2023-03-25T03:47:36;97109.78;;;9.44;71.78
71917;BME280;59793;46.506;6.674;2023-03-25T03:50:08;97122.44;;;9.54;70.83
71917;BME280;59793;46.506;6.674;2023-03-25T03:52:38;97115.78;;;9.56;69.85
71917;BME280;59793;46.506;6.674;2023-03-25T03:55:11;97121.34;;;9.67;68.48
71917;BME280;59793;46.506;6.674;2023-03-25T03:57:43;97133.84;;;9.70;68.98
71917;BME280;59793;46.506;6.674;2023-03-25T04:00:54;97145.47;;;9.69;70.56
71917;BME280;59793;46.506;6.674;2023-03-25T04:03:27;97119.41;;;9.52;71.13
71917;BME280;59793;46.506;6.674;2023-03-25T04:08:55;97137.47;;;9.53;72.34
71917;BME280;59793;46.506;6.674;2023-03-25T04:11:26;97138.03;;;9.47;71.83
71917;BME280;59793;46.506;6.674;2023-03-25T04:13:57;97114.28;;;9.31;71.38
71917;BME280;59793;46.506;6.674;2023-03-25T04:16:24;97092.06;;;9.16;71.33
71917;BME280;59793;46.506;6.674;2023-03-25T04:18:49;97090.19;;;9.17;70.67
71917;BME280;59793;46.506;6.674;2023-03-25T04:21:18;97120.53;;;9.26;70.83
71917;BME280;59793;46.506;6.674;2023-03-25T04:23:43;97099.94;;;9.04;71.10
71917;BME280;59793;46.506;6.674;2023-03-25T04:26:11;97134.44;;;9.27;70.62
71917;BME280;59793;46.506;6.674;2023-03-25T04:28:37;97137.50;;;9.29;70.88
71917;BME280;59793;46.506;6.674;2023-03-25T04:31:11;97078.34;;;8.86;70.74
71917;BME280;59793;46.506;6.674;2023-03-25T04:33:40;97124.25;;;9.13;70.94
71917;BME280;59793;46.506;6.674;2023-03-25T04:36:05;97148.69;;;9.26;70.94
71917;BME280;59793;46.506;6.674;2023-03-25T04:38:31;97127.00;;;9.17;71.37
71917;BME280;59793;46.506;6.674;2023-03-25T04:40:56;97165.53;;;9.37;71.10
71917;BME280;59793;46.506;6.674;2023-03-25T04:43:22;97136.41;;;9.18;71.75
71917;BME280;59793;46.506;6.674;2023-03-25T04:45:47;97171.88;;;9.36;71.89
71917;BME280;59793;46.506;6.674;2023-03-25T04:48:23;97188.00;;;9.34;72.11
71917;BME280;59793;46.506;6.674;2023-03-25T04:50:54;97162.03;;;9.21;72.04
71917;BME280;59793;46.506;6.674;2023-03-25T04:53:20;97194.66;;;9.32;72.21
71917;BME280;59793;46.506;6.674;2023-03-25T04:55:45;97191.41;;;9.23;72.01
71917;BME280;59793;46.506;6.674;2023-03-25T04:58:13;97167.28;;;9.08;71.30
71917;BME280;59793;46.506;6.674;2023-03-25T05:00:41;97172.31;;;9.14;71.38
71917;BME280;59793;46.506;6.674;2023-03-25T05:03:08;97168.06;;;9.09;71.66
71917;BME280;59793;46.506;6.674;2023-03-25T05:05:34;97184.25;;;9.11;71.38
71917;BME280;59793;46.506;6.674;2023-03-25T05:08:00;97195.97;;;9.14;70.76
71917;BME280;59793;46.506;6.674;2023-03-25T05:10:25;97195.53;;;9.12;70.26
71917;BME280;59793;46.506;6.674;2023-03-25T05:12:57;97184.13;;;8.95;70.58
71917;BME280;59793;46.506;6.674;2023-03-25T05:15:23;97219.97;;;9.12;70.68
71917;BME280;59793;46.506;6.674;2023-03-25T05:17:48;97207.66;;;9.04;70.30
71917;BME280;59793;46.506;6.674;2023-03-25T05:20:14;97192.44;;;8.97;69.57
71917;BME280;59793;46.506;6.674;2023-03-25T05:22:40;97221.94;;;9.15;69.73
71917;BME280;59793;46.506;6.674;2023-03-25T05:25:08;97210.09;;;9.09;70.19
71917;BME280;59793;46.506;6.674;2023-03-25T05:27:34;97193.78;;;9.03;70.28
71917;BME280;59793;46.506;6.674;2023-03-25T05:30:00;97207.03;;;9.07;71.01
71917;BME280;59793;46.506;6.674;2023-03-25T05:32:27;97175.13;;;8.84;71.93
71917;BME280;59793;46.506;6.674;2023-03-25T05:35:00;97188.06;;;8.89;72.57
71917;BME280;59793;46.506;6.674;2023-03-25T05:37:25;97206.47;;;9.01;71.42
71917;BME280;59793;46.506;6.674;2023-03-25T05:39:51;97211.06;;;9.04;71.87
71917;BME280;59793;46.506;6.674;2023-03-25T05:42:17;97200.56;;;9.04;71.49
71917;BME280;59793;46.506;6.674;2023-03-25T05:44:42;97209.75;;;9.10;71.96
71917;BME280;59793;46.506;6.674;2023-03-25T05:47:17;97157.94;;;8.86;72.23
71917;BME280;59793;46.506;6.674;2023-03-25T05:49:44;97190.41;;;9.15;72.55
71917;BME280;59793;46.506;6.674;2023-03-25T05:52:10;97184.03;;;9.28;71.67
71917;BME280;59793;46.506;6.674;2023-03-25T05:54:36;97172.31;;;9.14;71.67
71917;BME280;59793;46.506;6.674;2023-03-25T05:57:06;97185.91;;;9.16;72.31
71917;BME280;59793;46.506;6.674;2023-03-25T05:59:32;97185.25;;;9.19;72.45
71917;BME280;59793;46.506;6.674;2023-03-25T06:01:57;97188.00;;;9.22;73.01
71917;BME280;59793;46.506;6.674;2023-03-25T06:04:23;97170.56;;;9.05;72.47
71917;BME280;59793;46.506;6.674;2023-03-25T06:06:48;97193.38;;;9.26;72.65
71917;BME280;59793;46.506;6.674;2023-03-25T06:09:14;97174.50;;;9.12;72.65
71917;BME280;59793;46.506;6.674;2023-03-25T06:11:42;97176.94;;;9.17;72.30
71917;BME280;59793;46.506;6.674;2023-03-25T06:14:07;97197.31;;;9.20;73.43
71917;BME280;59793;46.506;6.674;2023-03-25T06:16:33;97164.31;;;8.98;72.78
71917;BME280;59793;46.506;6.674;2023-03-25T06:18:59;97179.91;;;9.15;72.42
71917;BME280;59793;46.506;6.674;2023-03-25T06:21:30;97172.88;;;9.19;72.18
71917;BME280;59793;46.506;6.674;2023-03-25T06:23:58;97153.06;;;9.09;71.75
71917;BME280;59793;46.506;6.674;2023-03-25T06:26:24;97143.09;;;9.15;71.91
71917;BME280;59793;46.506;6.674;2023-03-25T06:28:50;97177.69;;;9.42;70.72
71917;BME280;59793;46.506;6.674;2023-03-25T06:31:21;97174.84;;;9.47;71.66
71917;BME280;59793;46.506;6.674;2023-03-25T06:33:50;97161.81;;;9.38;71.27
71917;BME280;59793;46.506;6.674;2023-03-25T06:36:17;97145.16;;;9.34;71.28
71917;BME280;59793;46.506;6.674;2023-03-25T06:38:45;97171.09;;;9.60;71.06
71917;BME280;59793;46.506;6.674;2023-03-25T06:41:12;97163.97;;;9.61;68.96
71917;BME280;59793;46.506;6.674;2023-03-25T06:43:38;97165.28;;;9.67;67.78
71917;BME280;59793;46.506;6.674;2023-03-25T06:46:05;97165.94;;;9.76;66.70
71917;BME280;59793;46.506;6.674;2023-03-25T06:48:30;97153.22;;;9.78;66.98
71917;BME280;59793;46.506;6.674;2023-03-25T06:50:56;97149.31;;;10.00;65.76
71917;BME280;59793;46.506;6.674;2023-03-25T06:53:21;97142.44;;;9.95;65.72
71917;BME280;59793;46.506;6.674;2023-03-25T06:55:47;97166.84;;;10.08;66.91
71917;BME280;59793;46.506;6.674;2023-03-25T06:58:12;97155.47;;;10.04;66.86
71917;BME280;59793;46.506;6.674;2023-03-25T07:00:38;97177.59;;;10.15;67.16
71917;BME280;59793;46.506;6.674;2023-03-25T07:03:03;97167.91;;;10.19;67.32
71917;BME280;59793;46.506;6.674;2023-03-25T07:05:29;97162.81;;;9.98;66.75
71917;BME280;59793;46.506;6.674;2023-03-25T07:07:54;97162.16;;;10.01;67.03
71917;BME280;59793;46.506;6.674;2023-03-25T07:10:19;97164.22;;;10.08;67.80
71917;BME280;59793;46.506;6.674;2023-03-25T07:12:45;97140.53;;;10.08;67.25
71917;BME280;59793;46.506;6.674;2023-03-25T07:15:10;97129.25;;;10.08;64.98
71917;BME280;59793;46.506;6.674;2023-03-25T07:17:36;97145.44;;;10.10;66.07
71917;BME280;59793;46.506;6.674;2023-03-25T07:20:06;97156.31;;;10.08;66.51
71917;BME280;59793;46.506;6.674;2023-03-25T07:22:31;97152.38;;;10.02;66.50
71917;BME280;59793;46.506;6.674;2023-03-25T07:24:57;97147.97;;;10.06;65.79
71917;BME280;59793;46.506;6.674;2023-03-25T07:27:23;97157.94;;;10.13;64.89
71917;BME280;59793;46.506;6.674;2023-03-25T07:29:48;97153.06;;;9.99;65.36
71917;BME280;59793;46.506;6.674;2023-03-25T07:32:14;97123.19;;;9.79;65.59
71917;BME280;59793;46.506;6.674;2023-03-25T07:34:39;97144.19;;;9.91;65.65
71917;BME280;59793;46.506;6.674;2023-03-25T07:37:05;97171.91;;;10.01;66.01
71917;BME280;59793;46.506;6.674;2023-03-25T07:39:32;97168.19;;;10.02;68.03
71917;BME280;59793;46.506;6.674;2023-03-25T07:41:57;97145.72;;;9.92;65.97
71917;BME280;59793;46.506;6.674;2023-03-25T07:44:22;97151.09;;;9.96;66.84
71917;BME280;59793;46.506;6.674;2023-03-25T07:46:48;97165.34;;;9.95;67.38
71917;BME280;59793;46.506;6.674;2023-03-25T07:49:14;97156.50;;;9.87;68.22
71917;BME280;59793;46.506;6.674;2023-03-25T07:51:40;97159.53;;;9.89;68.86
71917;BME280;59793;46.506;6.674;2023-03-25T07:54:06;97169.41;;;9.92;67.59
71917;BME280;59793;46.506;6.674;2023-03-25T07:56:31;97150.59;;;9.78;68.60
71917;BME280;59793;46.506;6.674;2023-03-25T07:58:56;97167.03;;;9.87;67.04
71917;BME280;59793;46.506;6.674;2023-03-25T08:01:22;97176.53;;;9.92;67.94
71917;BME280;59793;46.506;6.674;2023-03-25T08:03:47;97131.56;;;9.56;67.32
71917;BME280;59793;46.506;6.674;2023-03-25T08:06:13;97171.22;;;9.76;66.76
71917;BME280;59793;46.506;6.674;2023-03-25T08:08:38;97174.59;;;9.76;68.78
71917;BME280;59793;46.506;6.674;2023-03-25T08:11:04;97179.53;;;9.78;67.78
71917;BME280;59793;46.506;6.674;2023-03-25T08:13:30;97200.13;;;9.88;67.36
71917;BME280;59793;46.506;6.674;2023-03-25T08:15:55;97189.84;;;9.71;67.73
71917;BME280;59793;46.506;6.674;2023-03-25T08:18:21;97177.34;;;9.68;66.69
71917;BME280;59793;46.506;6.674;2023-03-25T08:20:48;97191.13;;;9.89;67.31
71917;BME280;59793;46.506;6.674;2023-03-25T08:23:15;97136.91;;;9.60;67.20
71917;BME280;59793;46.506;6.674;2023-03-25T08:25:47;97192.00;;;9.93;67.34
71917;BME280;59793;46.506;6.674;2023-03-25T08:28:14;97185.53;;;9.91;67.46
71917;BME280;59793;46.506;6.674;2023-03-25T08:30:42;97185.75;;;9.86;67.95
71917;BME280;59793;46.506;6.674;2023-03-25T08:33:09;97186.75;;;9.81;67.72
71917;BME280;59793;46.506;6.674;2023-03-25T08:35:36;97168.56;;;9.76;68.09
71917;BME280;59793;46.506;6.674;2023-03-25T08:38:03;97199.25;;;9.84;68.98
71917;BME280;59793;46.506;6.674;2023-03-25T08:40:35;97143.63;;;9.45;70.34
71917;BME280;59793;46.506;6.674;2023-03-25T08:43:03;97197.28;;;9.81;69.45
71917;BME280;59793;46.506;6.674;2023-03-25T08:45:31;97172.06;;;9.68;70.68
71917;BME280;59793;46.506;6.674;2023-03-25T08:47:58;97181.97;;;9.58;71.37
71917;BME280;59793;46.506;6.674;2023-03-25T08:50:23;97205.75;;;9.62;72.23
71917;BME280;59793;46.506;6.674;2023-03-25T08:52:48;97200.81;;;9.48;73.44
71917;BME280;59793;46.506;6.674;2023-03-25T08:55:17;97231.28;;;9.49;74.60
71917;BME280;59793;46.506;6.674;2023-03-25T08:57:43;97236.53;;;9.49;73.97
71917;BME280;59793;46.506;6.674;2023-03-25T09:00:10;97234.09;;;9.32;75.24
71917;BME280;59793;46.506;6.674;2023-03-25T09:02:39;97232.69;;;9.34;73.96
71917;BME280;59793;46.506;6.674;2023-03-25T09:05:07;97234.78;;;9.41;73.24
71917;BME280;59793;46.506;6.674;2023-03-25T09:07:32;97221.41;;;9.34;74.04
71917;BME280;59793;46.506;6.674;2023-03-25T09:09:58;97248.56;;;9.50;73.80
71917;BME280;59793;46.506;6.674;2023-03-25T09:12:23;97217.34;;;9.12;73.70
71917;BME280;59793;46.506;6.674;2023-03-25T09:14:48;97214.72;;;9.12;74.93
71917;BME280;59793;46.506;6.674;2023-03-25T09:17:14;97227.75;;;9.08;73.22
71917;BME280;59793;46.506;6.674;2023-03-25T09:19:39;97229.03;;;9.15;74.14
71917;BME280;59793;46.506;6.674;2023-03-25T09:22:05;97241.75;;;9.25;73.88
71917;BME280;59793;46.506;6.674;2023-03-25T09:24:31;97231.13;;;9.21;74.05
71917;BME280;59793;46.506;6.674;2023-03-25T09:26:59;97240.00;;;9.17;74.45
71917;BME280;59793;46.506;6.674;2023-03-25T09:29:26;97248.34;;;9.19;75.56
71917;BME280;59793;46.506;6.674;2023-03-25T09:31:51;97229.25;;;9.09;75.17
71917;BME280;59793;46.506;6.674;2023-03-25T09:34:16;97237.03;;;9.18;75.15
71917;BME280;59793;46.506;6.674;2023-03-25T09:36:42;97244.84;;;9.27;74.18
71917;BME280;59793;46.506;6.674;2023-03-25T09:39:09;97241.13;;;9.28;75.66
71917;BME280;59793;46.506;6.674;2023-03-25T09:44:51;97243.53;;;9.45;73.16
71917;BME280;59793;46.506;6.674;2023-03-25T09:47:20;97227.78;;;9.33;72.62
71917;BME280;59793;46.506;6.674;2023-03-25T09:49:50;97239.81;;;9.46;73.06
71917;BME280;59793;46.506;6.674;2023-03-25T09:52:28;97227.09;;;9.36;73.06
71917;BME280;59793;46.506;6.674;2023-03-25T09:55:07;97208.50;;;9.41;73.14
71917;BME280;59793;46.506;6.674;2023-03-25T09:57:47;97236.53;;;9.74;72.73
71917;BME280;59793;46.506;6.674;2023-03-25T10:00:21;97250.78;;;9.97;72.00
71917;BME280;59793;46.506;6.674;2023-03-25T10:02:56;97255.38;;;10.00;71.68
71917;BME280;59793;46.506;6.674;2023-03-25T10:05:39;97260.66;;;10.00;70.14
71917;BME280;59793;46.506;6.674;2023-03-25T10:22:08;97264.94;;;10.58;64.10
71917;BME280;59793;46.506;6.674;2023-03-25T10:24:52;97243.69;;;10.66;63.66
71917;BME280;59793;46.506;6.674;2023-03-25T10:30:21;97258.06;;;10.97;61.84
71917;BME280;59793;46.506;6.674;2023-03-25T10:32:50;97262.56;;;10.96;61.37
71917;BME280;59793;46.506;6.674;2023-03-25T10:35:35;97253.72;;;10.89;62.65
71917;BME280;59793;46.506;6.674;2023-03-25T10:38:12;97254.13;;;10.91;63.71
71917;BME280;59793;46.506;6.674;2023-03-25T10:40:44;97256.00;;;10.90;63.83
71917;BME280;59793;46.506;6.674;2023-03-25T10:43:30;97266.59;;;11.06;64.12
71917;BME280;59793;46.506;6.674;2023-03-25T10:48:29;97268.25;;;10.98;62.57
71917;BME280;59793;46.506;6.674;2023-03-25T10:53:25;97267.03;;;11.24;61.29
71917;BME280;59793;46.506;6.674;2023-03-25T10:56:13;97247.56;;;11.29;61.04
71917;BME280;59793;46.506;6.674;2023-03-25T10:58:40;97272.41;;;11.28;60.34
71917;BME280;59793;46.506;6.674;2023-03-25T11:01:17;97253.16;;;11.11;58.96
71917;BME280;59793;46.506;6.674;2023-03-25T11:03:45;97271.25;;;11.13;59.87
71917;BME280;59793;46.506;6.674;2023-03-25T11:08:56;97271.00;;;11.02;61.15
71917;BME280;59793;46.506;6.674;2023-03-25T11:11:31;97281.22;;;11.04;62.40
71917;BME280;59793;46.506;6.674;2023-03-25T11:13:57;97275.28;;;10.79;62.85
71917;BME280;59793;46.506;6.674;2023-03-25T11:16:22;97304.19;;;11.03;61.51
71917;BME280;59793;46.506;6.674;2023-03-25T11:18:50;97236.56;;;10.67;62.22
71917;BME280;59793;46.506;6.674;2023-03-25T11:21:17;97287.63;;;10.90;64.43
71917;BME280;59793;46.506;6.674;2023-03-25T11:23:48;97285.16;;;11.10;62.99
71917;BME280;59793;46.506;6.674;2023-03-25T11:26:29;97275.31;;;10.94;63.05
71917;BME280;59793;46.506;6.674;2023-03-25T11:31:35;97324.63;;;10.94;64.35
71917;BME280;59793;46.506;6.674;2023-03-25T11:41:54;97295.56;;;11.82;61.04
71917;BME280;59793;46.506;6.674;2023-03-25T11:44:30;97270.94;;;11.62;60.16
71917;BME280;59793;46.506;6.674;2023-03-25T11:47:03;97320.91;;;11.55;61.96
71917;BME280;59793;46.506;6.674;2023-03-25T11:49:33;97316.41;;;11.39;63.86
71917;BME280;59793;46.506;6.674;2023-03-25T11:52:04;97312.72;;;11.28;65.54
71917;BME280;59793;46.506;6.674;2023-03-25T11:54:32;97295.22;;;11.52;66.34
71917;BME280;59793;46.506;6.674;2023-03-25T11:57:02;97301.78;;;11.89;64.28
71917;BME280;59793;46.506;6.674;2023-03-25T11:59:38;97297.72;;;12.27;62.94
71917;BME280;59793;46.506;6.674;2023-03-25T12:02:29;97293.72;;;12.53;62.45
71917;BME280;59793;46.506;6.674;2023-03-25T12:07:49;97257.50;;;13.15;58.07
71917;BME280;59793;46.506;6.674;2023-03-25T12:10:27;97253.31;;;13.14;54.71
71917;BME280;59793;46.506;6.674;2023-03-25T12:15:51;97282.72;;;12.89;56.94
71917;BME280;59793;46.506;6.674;2023-03-25T12:18:31;97315.44;;;12.62;59.42
71917;BME280;59793;46.506;6.674;2023-03-25T12:29:51;97297.06;;;12.14;63.37
71917;BME280;59793;46.506;6.674;2023-03-25T12:32:57;97302.78;;;12.01;63.86
71917;BME280;59793;46.506;6.674;2023-03-25T12:35:38;97305.94;;;12.06;63.78
71917;BME280;59793;46.506;6.674;2023-03-25T12:38:32;97299.38;;;12.16;63.90
71917;BME280;59793;46.506;6.674;2023-03-25T12:41:20;97298.06;;;12.26;62.68
71917;BME280;59793;46.506;6.674;2023-03-25T12:49:27;97279.47;;;14.15;57.82
71917;BME280;59793;46.506;6.674;2023-03-25T12:52:07;97292.00;;;13.91;57.45
71917;BME280;59793;46.506;6.674;2023-03-25T12:57:31;97287.81;;;14.17;55.41
71917;BME280;59793;46.506;6.674;2023-03-25T13:11:04;97273.44;;;14.14;56.41
71917;BME280;59793;46.506;6.674;2023-03-25T13:13:32;97254.41;;;14.35;55.81
71917;BME280;59793;46.506;6.674;2023-03-25T13:16:06;97278.50;;;14.26;57.02
71917;BME280;59793;46.506;6.674;2023-03-25T13:18:44;97277.72;;;14.86;56.63
71917;BME280;59793;46.506;6.674;2023-03-25T13:21:15;97273.78;;;14.43;56.39
71917;BME280;59793;46.506;6.674;2023-03-25T13:23:44;97251.88;;;14.79;55.67
71917;BME280;59793;46.506;6.674;2023-03-25T13:26:13;97259.41;;;14.44;56.38
71917;BME280;59793;46.506;6.674;2023-03-25T13:28:46;97264.63;;;14.37;57.80
71917;BME280;59793;46.506;6.674;2023-03-25T13:31:25;97279.81;;;13.37;59.50
71917;BME280;59793;46.506;6.674;2023-03-25T13:36:43;97267.84;;;13.43;60.06
71917;BME280;59793;46.506;6.674;2023-03-25T13:39:22;97229.50;;;13.14;58.75
71917;BME280;59793;46.506;6.674;2023-03-25T13:41:55;97265.34;;;13.31;59.54
71917;BME280;59793;46.506;6.674;2023-03-25T13:44:29;97222.25;;;13.53;59.64
71917;BME280;59793;46.506;6.674;2023-03-25T13:47:18;97249.34;;;14.26;57.89
71917;BME280;59793;46.506;6.674;2023-03-25T13:49:50;97244.38;;;13.95;58.91
71917;BME280;59793;46.506;6.674;2023-03-25T13:52:18;97239.16;;;13.72;58.56
71917;BME280;59793;46.506;6.674;2023-03-25T13:54:50;97237.97;;;13.69;57.81
71917;BME280;59793;46.506;6.674;2023-03-25T14:08:22;97237.06;;;13.35;56.41
71917;BME280;59793;46.506;6.674;2023-03-25T14:10:57;97210.47;;;13.51;55.56
71917;BME280;59793;46.506;6.674;2023-03-25T14:13:47;97222.28;;;13.83;55.60
71917;BME280;59793;46.506;6.674;2023-03-25T14:16:19;97227.00;;;13.71;55.51
71917;BME280;59793;46.506;6.674;2023-03-25T14:18:49;97217.41;;;14.16;55.87
71917;BME280;59793;46.506;6.674;2023-03-25T14:23:45;97223.50;;;13.63;56.11
71917;BME280;59793;46.506;6.674;2023-03-25T14:26:11;97230.94;;;13.54;55.92
71917;BME280;59793;46.506;6.674;2023-03-25T14:28:39;97224.22;;;13.60;55.34
71917;BME280;59793;46.506;6.674;2023-03-25T14:44:20;97241.19;;;13.82;56.27
71917;BME280;59793;46.506;6.674;2023-03-25T14:46:45;97227.16;;;13.09;58.04
71917;BME280;59793;46.506;6.674;2023-03-25T14:49:19;97246.09;;;13.11;58.32
71917;BME280;59793;46.506;6.674;2023-03-25T14:51:49;97245.69;;;12.89;58.53
71917;BME280;59793;46.506;6.674;2023-03-25T14:54:32;97241.97;;;12.71;58.68
71917;BME280;59793;46.506;6.674;2023-03-25T14:57:14;97238.63;;;12.35;59.22
71917;BME280;59793;46.506;6.674;2023-03-25T14:59:48;97205.88;;;12.20;59.09
71917;BME280;59793;46.506;6.674;2023-03-25T15:02:20;97236.69;;;12.52;57.79
71917;BME280;59793;46.506;6.674;2023-03-25T15:04:55;97232.22;;;12.17;57.87
71917;BME280;59793;46.506;6.674;2023-03-25T15:07:38;97234.28;;;12.08;58.09
71917;BME280;59793;46.506;6.674;2023-03-25T15:10:06;97230.47;;;12.05;58.65
71917;BME280;59793;46.506;6.674;2023-03-25T15:12:36;97231.88;;;12.18;60.32
71917;BME280;59793;46.506;6.674;2023-03-25T15:15:23;97225.34;;;12.12;59.53
71917;BME280;59793;46.506;6.674;2023-03-25T15:17:49;97210.31;;;11.97;58.79
71917;BME280;59793;46.506;6.674;2023-03-25T15:25:47;97186.91;;;11.80;58.86
71917;BME280;59793;46.506;6.674;2023-03-25T15:47:22;97190.47;;;12.84;55.15
71917;BME280;59793;46.506;6.674;2023-03-25T15:52:36;97176.19;;;12.47;54.33
71917;BME280;59793;46.506;6.674;2023-03-25T15:57:40;97176.69;;;12.75;54.28
71917;BME280;59793;46.506;6.674;2023-03-25T16:00:25;97172.50;;;12.94;54.60
71917;BME280;59793;46.506;6.674;2023-03-25T16:05:27;97140.88;;;13.01;53.47
71917;BME280;59793;46.506;6.674;2023-03-25T16:07:55;97167.75;;;13.26;53.12